TAF KCNY
KCNY 081732Z 0818/0918 12005KT P6SM BKN045 OVC070 FM082000 18005KT P6SM OVC050 FM082300 23006KT P6SM OVC045 FM091100 21011KT P6SM VCSH OVC045=
METAR KCNY
WC KCNY
WS KCNY
WV KCNY